createdAt,value
2019-03-12T00:00:34.037Z,2.50
2019-03-12T00:03:03.257Z,2.60
2019-03-12T00:05:32.562Z,2.50
2019-03-12T00:08:01.794Z,2.50
2019-03-12T00:10:31.054Z,2.50
2019-03-12T00:13:00.375Z,2.50
2019-03-12T00:15:29.594Z,2.50
2019-03-12T00:17:58.870Z,2.50
2019-03-12T00:20:28.074Z,2.50
2019-03-12T00:22:57.354Z,2.50
2019-03-12T00:25:26.588Z,2.50
2019-03-12T00:27:55.832Z,2.50
2019-03-12T00:30:25.070Z,2.50
2019-03-12T00:32:55.775Z,2.40
2019-03-12T00:35:25.273Z,2.40
2019-03-12T00:37:54.487Z,2.40
2019-03-12T00:40:23.712Z,2.20
2019-03-12T00:42:52.860Z,2.20
2019-03-12T00:45:22.115Z,2.10
2019-03-12T00:47:51.248Z,2.10
2019-03-12T00:50:20.388Z,2.00
2019-03-12T00:52:49.708Z,2.00
2019-03-12T00:55:18.958Z,2.00
2019-03-12T00:57:48.104Z,2.00
2019-03-12T01:00:17.344Z,1.90
2019-03-12T01:02:46.590Z,1.90
2019-03-12T01:05:15.748Z,1.80
2019-03-12T01:07:44.930Z,1.70
2019-03-12T01:10:14.588Z,1.70
2019-03-12T01:12:43.840Z,1.70
2019-03-12T01:15:13.426Z,1.70
2019-03-12T01:17:42.680Z,1.80
2019-03-12T01:20:12.462Z,1.80
2019-03-12T01:22:41.720Z,1.80
2019-03-12T01:25:11.427Z,1.80
2019-03-12T01:27:40.707Z,1.70
2019-03-12T01:30:12.169Z,1.80
2019-03-12T01:32:41.328Z,1.80
2019-03-12T01:35:10.479Z,1.80
2019-03-12T01:37:39.711Z,1.90
2019-03-12T01:40:10.487Z,1.90
2019-03-12T01:42:39.788Z,1.90
2019-03-12T01:45:10.720Z,1.90
2019-03-12T01:47:39.922Z,2.00
2019-03-12T01:50:09.976Z,2.00
2019-03-12T01:52:39.218Z,2.10
2019-03-12T01:55:09.355Z,2.10
2019-03-12T01:57:38.588Z,2.20
2019-03-12T02:00:10.112Z,2.30
2019-03-12T02:02:39.267Z,2.40
2019-03-12T02:05:08.521Z,2.40
2019-03-12T02:07:37.675Z,2.50
2019-03-12T02:10:07.030Z,2.50
2019-03-12T02:12:36.257Z,2.60
2019-03-12T02:15:07.424Z,2.60
2019-03-12T02:17:36.598Z,2.60
2019-03-12T02:20:07.088Z,2.70
2019-03-12T02:22:36.226Z,2.70
2019-03-12T02:25:05.595Z,2.70
2019-03-12T02:27:34.739Z,2.70
2019-03-12T02:30:04.364Z,2.80
2019-03-12T02:32:33.509Z,2.80
2019-03-12T02:35:02.806Z,2.80
2019-03-12T02:37:32.188Z,2.80
2019-03-12T02:40:01.571Z,2.80
2019-03-12T02:42:30.848Z,2.80
2019-03-12T02:45:00.059Z,2.80
2019-03-12T02:47:29.408Z,2.80
2019-03-12T02:49:58.646Z,2.80
2019-03-12T02:52:27.860Z,2.80
2019-03-12T02:54:57.089Z,2.80
2019-03-12T02:57:26.408Z,2.80
2019-03-12T02:59:55.543Z,2.80
2019-03-12T03:02:24.789Z,2.80
2019-03-12T03:04:54.555Z,2.80
2019-03-12T03:07:42.985Z,2.80
2019-03-12T03:10:14.163Z,2.80
2019-03-12T03:12:43.409Z,2.80
2019-03-12T03:15:18.503Z,2.80
2019-03-12T03:17:47.688Z,2.90
2019-03-12T03:20:16.985Z,2.90
2019-03-12T03:22:46.271Z,2.90
2019-03-12T03:25:16.437Z,2.80
2019-03-12T03:27:45.784Z,2.80
2019-03-12T03:30:17.833Z,2.80
2019-03-12T03:32:47.207Z,2.80
2019-03-12T03:35:16.739Z,2.80
2019-03-12T03:37:46.012Z,2.80
2019-03-12T03:40:17.047Z,2.80
2019-03-12T03:42:46.296Z,2.80
2019-03-12T03:45:15.709Z,2.80
2019-03-12T03:47:44.879Z,2.80
2019-03-12T03:50:14.376Z,2.80
2019-03-12T03:52:43.595Z,2.80
2019-03-12T03:55:14.542Z,2.80
2019-03-12T03:57:43.985Z,2.80
2019-03-12T04:00:15.990Z,2.80
2019-03-12T04:02:45.155Z,2.80
2019-03-12T04:05:14.319Z,2.80
2019-03-12T04:07:43.598Z,2.80
2019-03-12T04:10:13.331Z,2.80
2019-03-12T04:12:42.727Z,2.70
2019-03-12T04:15:12.636Z,2.80
2019-03-12T04:17:42.134Z,2.70
2019-03-12T04:20:11.474Z,2.70
2019-03-12T04:22:40.784Z,2.70
2019-03-12T04:25:09.977Z,2.70
2019-03-12T04:27:39.200Z,2.70
2019-03-12T04:30:09.757Z,2.70
2019-03-12T04:32:38.995Z,2.70
2019-03-12T04:35:09.641Z,2.80
2019-03-12T04:37:38.820Z,2.70
2019-03-12T04:40:08.687Z,2.70
2019-03-12T04:42:37.976Z,2.70
2019-03-12T04:45:08.524Z,2.70
2019-03-12T04:47:37.759Z,2.70
2019-03-12T04:50:07.122Z,2.70
2019-03-12T04:52:36.339Z,2.70
2019-03-12T04:55:06.338Z,2.70
2019-03-12T04:57:35.501Z,2.70
2019-03-12T05:00:05.975Z,2.70
2019-03-12T05:02:35.242Z,2.70
2019-03-12T05:05:05.075Z,2.70
2019-03-12T05:07:34.323Z,2.70
2019-03-12T05:10:03.799Z,2.70
2019-03-12T05:12:33.110Z,2.70
2019-03-12T05:15:02.399Z,2.70
2019-03-12T05:17:33.847Z,2.70
2019-03-12T05:20:03.056Z,2.60
2019-03-12T05:22:32.282Z,2.70
2019-03-12T05:25:01.459Z,2.60
2019-03-12T05:27:30.619Z,2.60
2019-03-12T05:29:59.895Z,2.70
2019-03-12T05:32:29.206Z,2.60
2019-03-12T05:34:58.339Z,2.60
2019-03-12T05:37:27.581Z,2.60
2019-03-12T05:39:56.831Z,2.60
2019-03-12T05:42:26.095Z,2.60
2019-03-12T05:44:55.352Z,2.60
2019-03-12T05:47:24.591Z,2.60
2019-03-12T05:49:53.927Z,2.60
2019-03-12T05:52:23.224Z,2.60
2019-03-12T05:54:52.465Z,2.60
2019-03-12T05:57:21.622Z,2.60
2019-03-12T05:59:50.788Z,2.60
2019-03-12T06:02:19.963Z,2.60
2019-03-12T06:04:49.158Z,2.60
2019-03-12T06:07:18.437Z,2.70
2019-03-12T06:09:47.598Z,2.70
2019-03-12T06:12:16.829Z,2.70
2019-03-12T06:14:46.038Z,2.70
2019-03-12T06:17:15.235Z,2.70
2019-03-12T06:19:44.359Z,2.70
2019-03-12T06:22:13.658Z,2.70
2019-03-12T06:24:42.884Z,2.70
2019-03-12T06:27:12.063Z,2.80
2019-03-12T06:29:41.281Z,2.80
2019-03-12T06:32:20.173Z,2.80
2019-03-12T06:35:11.569Z,2.80
2019-03-12T06:37:49.342Z,2.80
2019-03-12T06:40:37.573Z,2.80
2019-03-12T06:43:28.712Z,2.90
2019-03-12T06:46:19.910Z,2.90
2019-03-12T06:48:56.131Z,2.90
2019-03-12T06:51:34.488Z,2.90
2019-03-12T06:54:21.560Z,2.90
2019-03-12T06:57:03.502Z,2.90
2019-03-12T06:59:41.996Z,3.00
2019-03-12T07:02:21.743Z,3.10
2019-03-12T07:05:22.015Z,3.10
2019-03-12T07:08:28.722Z,3.10
2019-03-12T07:11:26.037Z,3.20
2019-03-12T07:14:08.642Z,3.20
2019-03-12T07:16:55.527Z,3.30
2019-03-12T07:20:01.895Z,3.40
2019-03-12T07:22:40.750Z,3.50
2019-03-12T07:25:15.636Z,3.50
2019-03-12T07:28:07.043Z,3.70
2019-03-12T07:31:01.762Z,3.80
2019-03-12T07:33:52.779Z,3.80
2019-03-12T07:36:39.875Z,4.00
2019-03-12T07:39:26.141Z,4.40
2019-03-12T07:42:20.523Z,4.80
2019-03-12T07:45:08.813Z,5.10
2019-03-12T07:47:47.019Z,5.60
2019-03-12T07:50:41.434Z,5.60
2019-03-12T07:53:28.425Z,5.60
2019-03-12T07:56:02.872Z,5.70
2019-03-12T07:58:39.519Z,5.70
2019-03-12T08:01:25.086Z,5.70
2019-03-12T08:04:12.435Z,5.40
2019-03-12T08:06:59.626Z,5.30
2019-03-12T08:09:50.935Z,5.30
2019-03-12T08:12:41.981Z,5.30
2019-03-12T08:15:25.344Z,5.50
2019-03-12T08:18:13.203Z,6.00
2019-03-12T08:21:07.546Z,6.50
2019-03-12T08:24:00.711Z,6.70
2019-03-12T08:26:40.818Z,6.70
2019-03-12T08:29:40.960Z,6.80
2019-03-12T08:32:25.308Z,6.80
2019-03-12T08:35:12.422Z,6.80
2019-03-12T08:38:00.622Z,7.00
2019-03-12T08:40:52.769Z,7.60
2019-03-12T08:43:41.516Z,8.60
2019-03-12T08:46:29.679Z,9.60
2019-03-12T08:49:14.586Z,10.10
2019-03-12T08:51:52.958Z,10.20
2019-03-12T08:54:33.977Z,11.10
2019-03-12T08:57:34.343Z,11.60
2019-03-12T09:00:14.227Z,12.20
2019-03-12T09:03:02.424Z,12.50
2019-03-12T09:06:02.685Z,13.10
2019-03-12T09:08:47.690Z,12.80
2019-03-12T09:11:28.532Z,12.60
2019-03-12T09:14:34.808Z,12.20
2019-03-12T09:17:21.706Z,11.10
2019-03-12T09:20:00.404Z,10.00
2019-03-12T09:22:54.646Z,10.80
2019-03-12T09:25:45.970Z,11.50
2019-03-12T09:28:23.142Z,12.60
2019-03-12T09:31:17.519Z,11.30
2019-03-12T09:33:52.845Z,11.60
2019-03-12T09:36:29.796Z,12.20
2019-03-12T09:39:36.248Z,12.00
2019-03-12T09:42:33.106Z,11.90
2019-03-12T09:45:37.131Z,12.50
2019-03-12T09:48:31.226Z,12.10
2019-03-12T09:51:08.442Z,12.40
2019-03-12T09:53:43.550Z,13.20
2019-03-12T09:56:34.486Z,13.00
2019-03-12T09:59:21.455Z,11.70
2019-03-12T10:02:00.700Z,10.60
2019-03-12T10:04:51.912Z,9.50
2019-03-12T10:07:34.178Z,8.90
2019-03-12T10:10:21.442Z,8.20
2019-03-12T10:13:08.250Z,8.00
2019-03-12T10:15:55.688Z,8.00
2019-03-12T10:18:37.226Z,9.70
2019-03-12T10:21:38.108Z,11.10
2019-03-12T10:24:13.762Z,12.40
2019-03-12T10:27:05.869Z,13.70
2019-03-12T10:29:51.426Z,13.30
2019-03-12T10:32:42.730Z,12.10
2019-03-12T10:35:25.750Z,11.40
2019-03-12T10:38:16.757Z,11.10
2019-03-12T10:41:05.816Z,11.10
2019-03-12T10:43:42.972Z,10.50
2019-03-12T10:46:40.022Z,10.00
2019-03-12T10:49:09.844Z,9.40
2019-03-12T10:51:39.086Z,9.20
2019-03-12T10:54:08.287Z,9.50
2019-03-12T10:56:37.452Z,9.60
2019-03-12T10:59:06.701Z,9.60
2019-03-12T11:01:36.066Z,10.30
2019-03-12T11:04:05.273Z,12.20
2019-03-12T11:06:34.462Z,13.60
2019-03-12T11:09:05.898Z,13.50
2019-03-12T11:11:35.203Z,12.80
2019-03-12T11:14:04.690Z,11.80
2019-03-12T11:16:33.850Z,11.10
2019-03-12T11:19:02.981Z,11.10
2019-03-12T11:21:32.228Z,10.80
2019-03-12T11:24:01.448Z,10.60
2019-03-12T11:26:30.752Z,10.90
2019-03-12T11:29:00.009Z,10.50
2019-03-12T11:31:31.520Z,10.30
2019-03-12T11:34:00.788Z,11.40
2019-03-12T11:36:30.128Z,12.70
2019-03-12T11:38:59.409Z,12.40
2019-03-12T11:41:28.741Z,11.90
2019-03-12T11:43:58.116Z,12.30
2019-03-12T11:46:27.368Z,12.20
2019-03-12T11:48:56.762Z,12.40
2019-03-12T11:51:26.119Z,12.90
2019-03-12T11:53:56.928Z,13.40
2019-03-12T11:56:26.397Z,13.40
2019-03-12T11:58:56.246Z,13.80
2019-03-12T12:01:25.796Z,12.80
2019-03-12T12:03:55.082Z,12.70
2019-03-12T12:06:24.803Z,12.40
2019-03-12T12:08:54.263Z,12.60
2019-03-12T12:11:23.568Z,13.60
2019-03-12T12:13:52.812Z,14.60
2019-03-12T12:16:21.982Z,16.20
2019-03-12T12:18:51.445Z,16.90
2019-03-12T12:21:20.669Z,16.30
2019-03-12T12:23:49.897Z,16.10
2019-03-12T12:26:19.191Z,17.20
2019-03-12T12:28:48.447Z,17.50
2019-03-12T12:31:17.634Z,17.40
2019-03-12T12:33:46.800Z,16.80
2019-03-12T12:36:16.058Z,15.30
2019-03-12T12:38:45.259Z,15.30
2019-03-12T12:41:14.496Z,15.70
2019-03-12T12:43:43.846Z,14.80
2019-03-12T12:46:13.088Z,14.00
2019-03-12T12:48:42.467Z,14.20
2019-03-12T12:51:11.790Z,14.70
2019-03-12T12:53:41.031Z,16.00
2019-03-12T12:56:10.199Z,16.80
2019-03-12T12:58:39.520Z,16.20
2019-03-12T13:01:08.689Z,14.90
2019-03-12T13:03:37.961Z,14.00
2019-03-12T13:06:07.222Z,13.50
2019-03-12T13:08:36.440Z,12.30
2019-03-12T13:11:05.707Z,11.80
2019-03-12T13:13:34.937Z,11.50
2019-03-12T13:16:04.151Z,11.20
2019-03-12T13:18:33.331Z,10.90
2019-03-12T13:21:02.509Z,10.20
2019-03-12T13:23:31.731Z,10.10
2019-03-12T13:26:00.917Z,10.00
2019-03-12T13:28:30.199Z,9.90
2019-03-12T13:30:59.415Z,9.30
2019-03-12T13:33:28.605Z,9.60
2019-03-12T13:35:57.840Z,9.40
2019-03-12T13:38:27.362Z,9.50
2019-03-12T13:40:56.864Z,9.40
2019-03-12T13:43:26.203Z,9.30
2019-03-12T13:45:55.607Z,9.10
2019-03-12T13:48:25.031Z,9.10
2019-03-12T13:50:54.327Z,9.30
2019-03-12T13:53:23.585Z,9.10
2019-03-12T13:55:54.023Z,8.90
2019-03-12T13:58:23.237Z,9.00
2019-03-12T14:00:52.460Z,9.10
2019-03-12T14:03:21.844Z,9.10
2019-03-12T14:05:51.082Z,8.80
2019-03-12T14:08:20.423Z,8.50
2019-03-12T14:10:49.719Z,8.50
2019-03-12T14:13:19.001Z,8.40
2019-03-12T14:15:48.399Z,8.50
2019-03-12T14:18:17.819Z,8.50
2019-03-12T14:20:49.146Z,8.40
2019-03-12T14:23:24.403Z,8.60
2019-03-12T14:25:53.731Z,8.60
2019-03-12T14:28:23.098Z,8.50
2019-03-12T14:30:52.487Z,8.40
2019-03-12T14:33:21.883Z,8.60
2019-03-12T14:35:52.282Z,8.70
2019-03-12T14:38:21.843Z,8.80
2019-03-12T14:40:51.119Z,8.90
2019-03-12T14:43:20.843Z,8.80
2019-03-12T14:45:50.816Z,8.60
2019-03-12T14:48:41.886Z,8.50
2019-03-12T14:51:23.814Z,8.50
2019-03-12T14:53:54.240Z,8.40
2019-03-12T14:56:27.460Z,8.30
2019-03-12T14:58:56.929Z,8.40
2019-03-12T15:01:26.276Z,8.40
2019-03-12T15:03:55.615Z,8.30
2019-03-12T15:06:24.900Z,8.20
2019-03-12T15:08:54.251Z,8.30
2019-03-12T15:11:23.547Z,8.50
2019-03-12T15:13:52.777Z,8.60
2019-03-12T15:16:21.934Z,8.70
2019-03-12T15:18:52.136Z,9.50
2019-03-12T15:21:21.665Z,11.00
2019-03-12T15:23:50.932Z,11.30
2019-03-12T15:26:20.169Z,10.80
2019-03-12T15:28:49.401Z,9.90
2019-03-12T15:31:18.555Z,9.30
2019-03-12T15:33:48.047Z,9.00
2019-03-12T15:36:17.300Z,8.80
2019-03-12T15:38:46.598Z,8.60
2019-03-12T15:41:16.459Z,8.60
2019-03-12T15:43:46.032Z,8.50
2019-03-12T15:46:18.118Z,8.40
2019-03-12T15:48:47.365Z,8.60
2019-03-12T15:51:16.527Z,8.70
2019-03-12T15:53:45.696Z,8.80
2019-03-12T15:56:14.970Z,8.70
2019-03-12T15:58:44.327Z,8.70
2019-03-12T16:01:13.611Z,8.60
2019-03-12T16:03:42.834Z,8.50
2019-03-12T16:06:12.143Z,8.50
2019-03-12T16:08:41.331Z,8.40
2019-03-12T16:11:10.611Z,8.20
2019-03-12T16:13:39.931Z,8.20
2019-03-12T16:16:09.312Z,8.20
2019-03-12T16:18:38.663Z,8.00
2019-03-12T16:21:07.887Z,8.00
2019-03-12T16:23:37.133Z,7.90
2019-03-12T16:26:06.488Z,7.90
2019-03-12T16:28:35.889Z,7.80
2019-03-12T16:31:05.094Z,7.90
2019-03-12T16:33:34.333Z,7.80
2019-03-12T16:36:03.584Z,7.80
2019-03-12T16:38:32.966Z,7.80
2019-03-12T16:41:02.124Z,7.70
2019-03-12T16:43:31.326Z,7.70
2019-03-12T16:46:00.650Z,7.60
2019-03-12T16:48:29.884Z,7.60
2019-03-12T16:50:59.196Z,7.50
2019-03-12T16:53:28.461Z,7.50
2019-03-12T16:55:57.669Z,7.50
2019-03-12T16:58:26.836Z,7.40
2019-03-12T17:00:56.014Z,7.40
2019-03-12T17:03:25.210Z,7.40
2019-03-12T17:05:54.379Z,7.40
2019-03-12T17:08:23.643Z,7.30
2019-03-12T17:11:00.781Z,7.30
2019-03-12T17:13:23.893Z,7.20
2019-03-12T17:15:54.947Z,7.20
2019-03-12T17:18:24.201Z,7.10
2019-03-12T17:20:53.524Z,7.10
2019-03-12T17:23:22.819Z,7.00
2019-03-12T17:25:52.122Z,7.00
2019-03-12T17:28:21.461Z,7.00
2019-03-12T17:30:50.722Z,7.00
2019-03-12T17:33:19.993Z,7.00
2019-03-12T17:35:50.106Z,7.00
2019-03-12T17:38:19.427Z,7.00
2019-03-12T17:40:48.754Z,6.90
2019-03-12T17:43:18.141Z,7.00
2019-03-12T17:45:47.760Z,6.90
2019-03-12T17:48:16.976Z,6.90
2019-03-12T17:50:46.237Z,6.90
2019-03-12T17:53:15.607Z,6.90
2019-03-12T17:55:44.930Z,6.90
2019-03-12T17:58:14.199Z,6.80
2019-03-12T18:00:44.708Z,6.80
2019-03-12T18:03:13.985Z,6.80
2019-03-12T18:05:43.142Z,6.70
2019-03-12T18:08:31.410Z,6.70
2019-03-12T18:11:00.722Z,6.70
2019-03-12T18:13:30.111Z,6.60
2019-03-12T18:15:59.411Z,6.60
2019-03-12T18:18:28.755Z,6.60
2019-03-12T18:20:58.143Z,6.50
2019-03-12T18:23:27.553Z,6.50
2019-03-12T18:25:56.952Z,6.50
2019-03-12T18:28:26.251Z,6.40
2019-03-12T18:30:55.551Z,6.40
2019-03-12T18:33:24.815Z,6.40
2019-03-12T18:35:54.154Z,6.40
2019-03-12T18:38:23.328Z,6.30
2019-03-12T18:40:52.550Z,6.30
2019-03-12T18:43:21.810Z,6.30
2019-03-12T18:46:10.230Z,6.30
2019-03-12T18:48:39.452Z,6.30
2019-03-12T18:51:08.684Z,6.20
2019-03-12T18:53:37.976Z,6.20
2019-03-12T18:56:08.830Z,6.10
2019-03-12T18:58:38.097Z,6.10
2019-03-12T19:01:09.803Z,6.10
2019-03-12T19:03:39.038Z,6.00
2019-03-12T19:06:10.011Z,6.00
2019-03-12T19:08:39.374Z,6.10
2019-03-12T19:11:08.692Z,6.00
2019-03-12T19:13:39.678Z,6.00
2019-03-12T19:16:08.872Z,6.00
2019-03-12T19:18:38.166Z,6.00
2019-03-12T19:21:07.474Z,5.90
2019-03-12T19:23:36.902Z,5.90
2019-03-12T19:26:09.184Z,5.90
2019-03-12T19:28:38.538Z,5.90
2019-03-12T19:31:22.728Z,6.00
2019-03-12T19:33:53.218Z,6.00
2019-03-12T19:36:22.516Z,6.00
2019-03-12T19:38:51.831Z,6.00
2019-03-12T19:41:21.070Z,6.00
2019-03-12T19:43:50.296Z,6.00
2019-03-12T19:46:19.534Z,6.00
2019-03-12T19:48:48.698Z,6.00
2019-03-12T19:51:17.853Z,6.00
2019-03-12T19:53:47.139Z,6.00
2019-03-12T19:56:16.384Z,6.00
2019-03-12T19:58:45.578Z,5.90
2019-03-12T20:01:15.072Z,5.90
2019-03-12T20:03:44.356Z,5.90
2019-03-12T20:06:13.661Z,5.90
2019-03-12T20:08:42.978Z,5.80
2019-03-12T20:11:51.686Z,5.80
2019-03-12T20:15:13.266Z,5.80
2019-03-12T20:18:23.876Z,5.80
2019-03-12T20:21:38.584Z,5.80
2019-03-12T20:24:44.768Z,5.80
2019-03-12T20:27:45.418Z,5.80
2019-03-12T20:30:58.026Z,5.80
2019-03-12T20:34:16.545Z,5.80
2019-03-12T20:37:41.153Z,5.80
2019-03-12T20:40:58.267Z,5.80
2019-03-12T20:44:04.394Z,5.70
2019-03-12T20:47:28.692Z,5.60
2019-03-12T20:50:47.991Z,5.60
2019-03-12T20:54:09.740Z,5.50
2019-03-12T20:57:10.295Z,5.50
2019-03-12T21:00:15.814Z,5.40
2019-03-12T21:03:31.592Z,5.30
2019-03-12T21:06:37.636Z,5.30
2019-03-12T21:09:54.439Z,5.20
2019-03-12T21:13:04.119Z,5.20
2019-03-12T21:16:38.731Z,5.20
2019-03-12T21:20:01.228Z,5.00
2019-03-12T21:22:56.570Z,5.00
2019-03-12T21:25:51.510Z,5.00
2019-03-12T21:28:54.848Z,4.90
2019-03-12T21:31:24.114Z,4.90
2019-03-12T21:33:53.362Z,4.90
2019-03-12T21:36:22.672Z,5.00
2019-03-12T21:38:51.959Z,5.00
2019-03-12T21:41:21.159Z,5.00
2019-03-12T21:43:50.521Z,5.00
2019-03-12T21:46:19.864Z,4.90
2019-03-12T21:48:49.064Z,5.00
2019-03-12T21:51:18.377Z,5.10
2019-03-12T21:53:47.639Z,5.10
2019-03-12T21:56:16.772Z,5.10
2019-03-12T21:58:46.015Z,5.20
2019-03-12T22:01:15.823Z,5.20
2019-03-12T22:03:45.083Z,5.20
2019-03-12T22:06:14.367Z,5.10
2019-03-12T22:08:43.633Z,5.10
2019-03-12T22:11:12.901Z,5.10
2019-03-12T22:13:42.635Z,5.00
2019-03-12T22:16:11.871Z,5.00
2019-03-12T22:18:41.090Z,5.00
2019-03-12T22:21:10.328Z,4.90
2019-03-12T22:23:43.345Z,5.00
2019-03-12T22:26:12.677Z,5.00
2019-03-12T22:28:41.939Z,5.00
2019-03-12T22:31:12.945Z,5.00
2019-03-12T22:33:42.151Z,5.10
2019-03-12T22:36:11.349Z,5.10
2019-03-12T22:38:40.647Z,5.00
2019-03-12T22:41:09.919Z,5.00
2019-03-12T22:43:39.259Z,5.10
2019-03-12T22:46:08.537Z,5.00
2019-03-12T22:48:37.857Z,5.00
2019-03-12T22:51:07.098Z,5.10
2019-03-12T22:53:36.354Z,5.10
2019-03-12T22:56:05.871Z,5.00
2019-03-12T22:58:35.059Z,5.00
2019-03-12T23:01:04.333Z,5.00
2019-03-12T23:03:33.559Z,5.00
2019-03-12T23:06:02.717Z,5.00
2019-03-12T23:08:31.991Z,5.10
2019-03-12T23:11:01.127Z,5.10
2019-03-12T23:13:30.350Z,5.10
2019-03-12T23:15:59.519Z,5.00
2019-03-12T23:18:28.744Z,5.10
2019-03-12T23:20:58.054Z,5.10
2019-03-12T23:23:27.237Z,5.20
2019-03-12T23:25:56.375Z,5.30
2019-03-12T23:28:25.519Z,5.30
2019-03-12T23:30:54.667Z,5.40
2019-03-12T23:33:23.828Z,5.40
2019-03-12T23:35:52.980Z,5.40
2019-03-12T23:38:22.176Z,5.40
2019-03-12T23:40:51.355Z,5.40
2019-03-12T23:43:20.689Z,5.50
2019-03-12T23:45:49.940Z,5.60
2019-03-12T23:48:19.164Z,5.60
2019-03-12T23:50:48.318Z,5.70
2019-03-12T23:53:17.554Z,5.70
2019-03-12T23:55:46.765Z,5.70
2019-03-12T23:58:15.990Z,5.70
